Nearby METAR Reports

 

KSJC - San Jose, California, USA
Distance from station: NE 9mi, 14km
Updated: Sun, 22-Oct-2017 2:53pm EDT
Clear
Clear
 Wind from NNW
Wind: NNW 7 mph , 11 km/h
Temperature: 68°F , 20°C
Dew Point: 54°F , 12°C
Humidity: 60%
Barometer: 30.34 inHg , 1027.4 hPa
Clouds: Clear
Visibility: 10 miles , 16 km
2017/10/22 18:53 KSJC 221853Z 34006KT 10SM CLR 20/12 A3034 RMK AO2 SLP274 T02000122
KNUQ - Moffett Nas/Mtn, California, USA
Distance from station: N 9mi, 14km
Updated: Sun, 22-Oct-2017 2:56pm EDT
Clear
Clear
 Wind from NNW
Wind: NNW 7 mph , 11 km/h
Temperature: 64°F , 18°C
Dew Point: 55°F , 13°C
Humidity: 73%
Barometer: 30.35 inHg , 1027.8 hPa
Clouds: Clear
Visibility: 10 miles , 16 km
2017/10/22 18:56 KNUQ 221856Z 33006KT 10SM CLR 18/13 A3035 RMK AO2 SLP280 T01830128
 
KPAO - Palo Alto, California, USA
Distance from station: NNW 14mi, 23km
Updated: Sun, 22-Oct-2017 2:47pm EDT
Clear
Clear
 Wind from NNW
Wind: NNW 12 mph , 19 km/h
Temperature: 66°F , 19°C
Dew Point: 57°F , 14°C
Humidity: 73%
Barometer: 30.35 inHg , 1027.8 hPa
Clouds: Clear
Visibility: 10 miles , 16 km
2017/10/22 18:47 KPAO 221847Z 34010KT 10SM SKC 19/14 A3035
KRHV - San Jose/Reid, California, USA
Distance from station: ENE 12mi, 19km
Updated: Sun, 22-Oct-2017 2:47pm EDT
Clear
Clear
 Wind from NW
Wind: NW 7 mph , 11 km/h
Temperature: 66°F , 19°C
Dew Point: 54°F , 12°C
Humidity: 64%
Barometer: 30.38 inHg , 1028.8 hPa
Clouds: Clear
Visibility: 10 miles , 16 km
2017/10/22 18:47 KRHV 221847Z 32006KT 10SM SKC 19/12 A3038
 
KOAK - Oakland, California, USA
Distance from station: NNW 31mi, 50km
Updated: Sun, 22-Oct-2017 2:53pm EDT
Clear
Clear
 Wind from W
Wind: W 12 mph , 19 km/h
Temperature: 64°F , 18°C
Dew Point: 55°F , 13°C
Humidity: 73%
Barometer: 30.36 inHg , 1028.1 hPa
Clouds: Clear
Visibility: 10 miles , 16 km
2017/10/22 18:53 KOAK 221853Z 28010KT 10SM CLR 18/13 A3036 RMK AO2 SLP280 T01830128 $
KSQL - San Carlos Airpo, California, USA
Distance from station: NW 21mi, 34km
Updated: Sun, 22-Oct-2017 2:55pm EDT
Clear
Clear
 Wind from NW
Wind: NW 7 mph , 11 km/h
Temperature: 64°F , 18°C
Dew Point: 54°F , 12°C
Humidity: 68%
Barometer: 30.36 inHg , 1028.1 hPa
Clouds: Clear
Visibility: 10 miles , 16 km
2017/10/22 18:55 KSQL 221855Z 31006KT 10SM SKC 18/12 A3036
 
KSFO - San Francisco, California, USA
Distance from station: NW 30mi, 49km
Updated: Sun, 22-Oct-2017 2:56pm EDT
Clear
Clear
 Wind from NNE
Wind: NNE 6 mph , 9 km/h
Temperature: 64°F , 18°C
Dew Point: 55°F , 13°C
Humidity: 73%
Barometer: 30.35 inHg , 1027.8 hPa
Clouds: Clear
Visibility: 10 miles , 16 km
2017/10/22 18:56 KSFO 221856Z 03005KT 10SM CLR 18/13 A3035 RMK AO2 SLP279 T01780128
KE16 - San Martin, California, USA
Distance from station: ESE 27mi, 43km
Updated: Sun, 22-Oct-2017 3:15pm EDT
Light rain, Clear
Light rain, Clear
 Wind from NW
Wind: NW 12 mph , 19 km/h, Gust: 17 mph , 28 km/h
Temperature: 68°F , 20°C
Dew Point: 50°F , 10°C
Humidity: 53%
Barometer: 30.34 inHg , 1027.4 hPa
Summary: Light rain
Clouds: Clear
Visibility: 10 miles , 16 km
2017/10/22 19:15 KE16 221915Z AUTO 32010G15KT 10SM -RA CLR 20/10 A3034 RMK AO2
 
KWVI - Watsonville, California, USA
Distance from station: SSE 27mi, 44km
Updated: Sun, 22-Oct-2017 2:53pm EDT
Clear
Clear
 Wind from ESE
Wind: ESE 3 mph , 6 km/h
Temperature: 72°F , 22°C
Dew Point: 52°F , 11°C
Humidity: 50%
Barometer: 30.32 inHg , 1026.8 hPa
Clouds: Clear
Visibility: 10 miles , 16 km
2017/10/22 18:53 KWVI 221853Z AUTO 12003KT 10SM CLR 22/11 A3032 RMK AO2 SLP265 T02170111 $
KHAF - Half Moon Bay, California, USA
Distance from station: WNW 31mi, 50km
Updated: Sun, 22-Oct-2017 3:15pm EDT
Clear
Clear
 Wind from NW
Wind: NW 14 mph , 22 km/h
Temperature: 64°F , 18°C
Dew Point: 54°F , 12°C
Humidity: 68%
Barometer: 30.32 inHg , 1026.8 hPa
Clouds: Clear
Visibility: 10 miles , 16 km
2017/10/22 19:15 KHAF 221915Z AUTO 32012KT 10SM CLR 18/12 A3032 RMK AO2
 
KHWD - Hayward, California, USA
Distance from station: N 28mi, 44km
Updated: Sun, 22-Oct-2017 2:54pm EDT
Clear
Clear
 Wind from WNW
Wind: WNW 8 mph , 13 km/h
Temperature: 64°F , 18°C
Dew Point: 52°F , 11°C
Humidity: 64%
Barometer: 30.35 inHg , 1027.8 hPa
Clouds: Clear
Visibility: 10 miles , 16 km
2017/10/22 18:54 KHWD 221854Z 30007KT 10SM CLR 18/11 A3035 RMK AO2 SLP287 T01830111 PNO
KLVK - Livermore, California, USA
Distance from station: NNE 31mi, 51km
Updated: Sun, 22-Oct-2017 2:53pm EDT
Clear
Clear
 Wind from varies
Wind: varies 3 mph , 6 km/h
Temperature: 66°F , 19°C
Dew Point: 52°F , 11°C
Humidity: 60%
Barometer: 30.34 inHg , 1027.4 hPa
Clouds: Clear
Visibility: 10 miles , 16 km
2017/10/22 18:53 KLVK 221853Z VRB03KT 10SM CLR 19/11 A3034 RMK AO2 SLP274 T01890106